KDHN/DHN METAR and TAF weather

Enter ICAO airport designator
Station Type Date Time Source
KDHN METAR 2019/12/06 13:53 UTC NOAA

KDHN 061353Z 00000KT 10SM BKN055 12/04 A3024 RMK AO2 SLP238 T01170044


Station Type Date Time Source
KDHN Decoded METAR 2019/12/06 13:53 UTC NOAA

DOTHAN AIRPORT, AL, United States (KDHN) 31-19N 085-27W 113M
Dec 06, 2019 - 08:53 AM EST / 2019.12.06 1353 UTC
Wind: Calm:0
Visibility: 10 mile(s):0
Sky conditions: mostly cloudy
Temperature: 53.1 F (11.7 C)
Dew Point: 39.9 F (4.4 C)
Relative Humidity: 60%
Pressure (altimeter): 30.24 in. Hg (1024 hPa)
ob: KDHN 061353Z 00000KT 10SM BKN055 12/04 A3024 RMK AO2 SLP238 T01170044
cycle: 14

Station Type Date Time Source
KDHN TAF 2019/12/06 12:22 UTC NOAA

TAF KDHN 061120Z 0612/0712 14005KT P6SM BKN100
FM062200 17006KT P6SM VCSH BKN050

Example: see airport list